Terminal Aerodrome Forecast
Issued by NWS State College, PA

Home | Current Version | Previous Version | Text Only | Print | Product List | Glossary On
Versions: 1 2 3 4 5 6 7 8 9 10 11 12 13 14 15 16 17 18 19 20 21 22 23 24 25 26 27 28 29 30 31 32 33 34 35 36 37 38 39 40 41 42 43 44 45 46 47 48 49 50
000
FTUS41 KCTP 111159
TAFMDT
TAF
KMDT 111159Z 1112/1212 VRB03KT P6SM OVC100
     FM111400 22004KT P6SM OVC050
     FM111600 15005KT 4SM -SN OVC035
     FM112000 14005KT P6SM OVC050
     FM120500 15005KT 3SM -FZRAPL OVC015
     FM120900 20005KT 4SM -RA OVC010=

USA.gov is the U.S. government's official web portal to all federal, state and local government web resources and services.